Time;durP1;ratioP1;P1;durP2;ratioP2;P2;SDS_P1;SDS_P2;PMS_P1;PMS_P2;Temp;Humidity;BMP_temperature;BMP_pressure;BME280_temperature;BME280_humidity;BME280_pressure;Samples;Min_cycle;Max_cycle;Signal;HPM_P1;HPM_P2
2022/06/08 00:00:54;;;;;;;5.97;4.30;;;;;;;19.11;65.70;100813.09;4996505;28;103042;-54
2022/06/08 00:03:26;;;;;;;6.38;4.25;;;;;;;19.13;65.99;100812.75;4995781;28;103797;-56
2022/06/08 00:05:55;;;;;;;5.72;4.35;;;;;;;19.13;65.74;100815.50;4985051;28;102407;-56
2022/06/08 00:08:24;;;;;;;5.00;3.83;;;;;;;19.13;65.84;100807.22;4987197;28;102308;-56
2022/06/08 00:10:50;;;;;;;6.93;4.10;;;;;;;19.12;65.80;100803.66;4995525;28;102227;-56
2022/06/08 00:13:17;;;;;;;7.50;4.32;;;;;;;19.11;66.05;100804.81;4993630;28;103927;-56
2022/06/08 00:15:44;;;;;;;5.53;4.35;;;;;;;19.11;65.93;100799.28;4991074;28;104802;-55
2022/06/08 00:18:10;;;;;;;3.92;3.40;;;;;;;19.12;65.81;100805.63;4991134;28;102018;-56
2022/06/08 00:20:37;;;;;;;5.65;4.00;;;;;;;19.12;66.22;100805.63;4977575;28;102109;-56
2022/06/08 00:23:05;;;;;;;4.97;4.28;;;;;;;19.12;66.01;100808.38;4985041;28;103956;-55
2022/06/08 00:25:34;;;;;;;5.32;4.40;;;;;;;19.12;66.10;100805.63;4983389;28;102752;-55
2022/06/08 00:28:01;;;;;;;5.90;4.10;;;;;;;19.12;66.23;100795.38;4979361;28;102966;-55
2022/06/08 00:30:27;;;;;;;8.48;3.97;;;;;;;19.12;66.23;100800.09;4992480;28;103049;-56
2022/06/08 00:32:54;;;;;;;6.30;3.83;;;;;;;19.13;65.99;100801.72;4981237;28;103934;-56
2022/06/08 00:35:20;;;;;;;6.28;3.88;;;;;;;19.12;66.19;100797.34;4976479;28;102395;-56
2022/06/08 00:37:47;;;;;;;5.45;4.05;;;;;;;19.12;66.19;100795.38;4983311;28;102050;-55
2022/06/08 00:40:18;;;;;;;7.47;4.22;;;;;;;19.12;66.13;100803.66;4988977;28;102192;-56
2022/06/08 00:42:47;;;;;;;6.85;4.00;;;;;;;19.12;66.27;100800.09;4979774;28;103842;-55
2022/06/08 00:45:17;;;;;;;4.72;4.00;;;;;;;19.11;66.37;100793.78;4984626;28;102175;-56
2022/06/08 00:47:48;;;;;;;5.30;3.90;;;;;;;19.12;66.05;100791.81;4982965;28;102276;-55
2022/06/08 00:50:19;;;;;;;7.22;3.90;;;;;;;19.11;66.36;100792.94;4982371;28;102061;-55
2022/06/08 00:52:47;;;;;;;4.40;3.97;;;;;;;19.12;66.31;100802.84;4984891;28;103933;-55
2022/06/08 00:55:16;;;;;;;6.00;4.07;;;;;;;19.12;66.25;100805.63;4990370;28;102622;-56
2022/06/08 00:57:49;;;;;;;5.28;3.95;;;;;;;19.11;66.65;100799.28;4984257;28;104452;-55
2022/06/08 01:00:20;;;;;;;6.75;4.20;;;;;;;19.12;66.36;100802.84;4978408;28;102427;-56
2022/06/08 01:02:47;;;;;;;7.00;4.93;;;;;;;19.12;66.33;100805.63;4977423;28;103786;-56
2022/06/08 01:05:25;;;;;;;7.05;4.38;;;;;;;19.12;66.08;100792.63;4978332;28;102325;-56
2022/06/08 01:07:58;;;;;;;5.20;4.38;;;;;;;19.11;66.67;100790.19;4990036;28;102685;-56
2022/06/08 01:10:28;;;;;;;5.75;4.00;;;;;;;19.11;66.27;100802.06;4988044;28;103261;-55
2022/06/08 01:13:04;;;;;;;8.60;4.45;;;;;;;19.10;66.57;100799.59;4987864;28;105853;-56
2022/06/08 01:15:35;;;;;;;4.88;3.80;;;;;;;19.10;66.53;100791.34;4980758;28;102632;-56
2022/06/08 01:18:02;;;;;;;5.00;3.50;;;;;;;19.10;66.11;100797.66;4982879;28;102411;-56
2022/06/08 01:20:29;;;;;;;4.85;3.67;;;;;;;19.10;66.06;100788.56;4989752;28;102402;-55
2022/06/08 01:22:58;;;;;;;6.32;4.18;;;;;;;19.11;66.21;100798.47;4990977;28;103911;-55
2022/06/08 01:25:28;;;;;;;6.35;4.07;;;;;;;19.11;66.12;100798.47;4986918;28;102276;-56
2022/06/08 01:28:06;;;;;;;5.53;4.00;;;;;;;19.11;66.14;100798.47;4994828;28;102609;-56
2022/06/08 01:30:43;;;;;;;7.18;4.20;;;;;;;19.11;66.04;100798.47;4993958;28;102337;-55
2022/06/08 01:33:36;;;;;;;5.82;4.00;;;;;;;19.10;66.17;100800.41;4988478;28;103907;-55
2022/06/08 01:36:18;;;;;;;7.30;4.25;;;;;;;19.10;66.09;100796.84;4984819;28;102069;-55
2022/06/08 01:38:52;;;;;;;5.40;3.95;;;;;;;19.09;66.27;100790.53;4988799;28;103749;-60
2022/06/08 01:41:47;;;;;;;6.75;4.63;;;;;;;19.11;66.35;100798.47;4995901;28;102437;-57
2022/06/08 01:44:40;;;;;;;5.88;4.68;;;;;;;19.10;66.13;100788.56;4988001;28;104022;-56
2022/06/08 01:47:12;;;;;;;4.57;4.00;;;;;;;19.11;66.15;100798.47;4985723;28;102569;-55
2022/06/08 01:49:46;;;;;;;4.20;3.50;;;;;;;19.11;66.36;100792.94;4982845;28;102423;-55
2022/06/08 01:52:31;;;;;;;5.50;4.00;;;;;;;19.10;66.43;100794.09;4990185;28;102230;-56
2022/06/08 01:55:06;;;;;;;5.10;3.88;;;;;;;19.09;66.59;100796.03;4990601;28;104166;-55
2022/06/08 01:57:55;;;;;;;5.45;4.03;;;;;;;19.11;66.14;100798.47;4982078;28;101897;-54
2022/06/08 02:00:25;;;;;;;5.38;4.25;;;;;;;19.10;66.42;100791.34;4978466;28;101964;-55
2022/06/08 02:03:01;;;;;;;5.88;4.07;;;;;;;19.10;66.22;100796.84;4996115;28;102126;-56
2022/06/08 02:05:37;;;;;;;4.60;3.75;;;;;;;19.11;66.21;100801.22;4994538;28;110557;-56
2022/06/08 02:08:12;;;;;;;5.03;4.10;;;;;;;19.09;66.35;100798.00;4977872;28;102349;-56
2022/06/08 02:10:48;;;;;;;5.32;4.30;;;;;;;19.09;66.55;100795.22;4992038;28;102221;-55
2022/06/08 02:13:20;;;;;;;5.65;3.97;;;;;;;19.10;66.55;100802.38;4997317;28;102245;-55
2022/06/08 02:15:51;;;;;;;5.68;3.97;;;;;;;19.10;66.10;100802.38;4989291;28;104069;-56
2022/06/08 02:18:23;;;;;;;7.85;3.95;;;;;;;19.09;66.38;100801.56;4984904;28;102213;-56
2022/06/08 02:20:55;;;;;;;4.97;3.67;;;;;;;19.11;66.12;100803.97;4984068;28;102260;-55
2022/06/08 02:23:26;;;;;;;5.07;3.80;;;;;;;19.10;66.44;100802.38;4997302;28;102336;-55
2022/06/08 02:26:00;;;;;;;4.22;3.75;;;;;;;19.09;66.63;100796.03;4986533;28;103922;-55
2022/06/08 02:28:33;;;;;;;6.55;3.90;;;;;;;19.09;66.50;100795.22;4984277;28;102557;-55
2022/06/08 02:31:07;;;;;;;5.35;4.40;;;;;;;19.09;66.47;100798.00;4992118;28;101978;-55
2022/06/08 02:36:29;;;;;;;5.07;3.70;;;;;;;19.10;66.50;100799.59;4979575;28;103939;-56
2022/06/08 02:39:03;;;;;;;6.72;4.03;;;;;;;19.09;66.42;100800.75;4993101;28;101995;-55
2022/06/08 02:41:32;;;;;;;5.10;4.25;;;;;;;19.10;66.28;100807.88;4978129;28;102588;-56
2022/06/08 02:44:04;;;;;;;4.40;4.00;;;;;;;19.08;66.36;100799.94;4991495;28;102261;-55
2022/06/08 02:46:41;;;;;;;4.78;4.28;;;;;;;19.09;66.62;100798.00;4975673;28;108553;-56
2022/06/08 02:49:09;;;;;;;5.40;3.70;;;;;;;19.08;66.39;100799.94;4991328;28;103032;-56
2022/06/08 02:51:40;;;;;;;5.53;4.00;;;;;;;19.09;66.62;100800.75;4985578;28;102300;-55
2022/06/08 02:54:13;;;;;;;6.13;4.03;;;;;;;19.08;66.35;100797.19;4990923;28;104489;-55
2022/06/08 02:57:07;;;;;;;4.88;4.05;;;;;;;19.09;66.67;100796.03;4987931;28;103988;-55
2022/06/08 02:59:43;;;;;;;5.53;3.95;;;;;;;19.09;66.59;100800.75;4993638;28;102540;-55
2022/06/08 03:02:16;;;;;;;6.18;3.83;;;;;;;19.10;66.50;100794.09;4996223;28;102471;-57
2022/06/08 03:04:52;;;;;;;4.70;3.80;;;;;;;19.11;65.62;100803.97;4990542;28;102213;-55
2022/06/08 03:07:23;;;;;;;4.15;3.60;;;;;;;19.12;65.89;100800.09;4993181;28;103995;-55
2022/06/08 03:09:52;;;;;;;5.50;3.22;;;;;;;19.12;65.79;100798.16;4989775;28;102176;-55
2022/06/08 03:12:26;;;;;;;4.40;3.47;;;;;;;19.12;66.39;100803.66;4983584;28;102333;-55
2022/06/08 03:14:56;;;;;;;5.22;3.80;;;;;;;19.12;66.51;100800.09;4992066;28;102416;-55
2022/06/08 03:17:30;;;;;;;4.77;3.77;;;;;;;19.12;66.49;100800.91;4987906;28;103932;-55
2022/06/08 03:19:56;;;;;;;4.18;3.70;;;;;;;19.13;66.68;100810.00;4987387;28;102505;-54
2022/06/08 03:22:23;;;;;;;4.85;4.20;;;;;;;19.14;66.69;100803.31;4979646;28;102156;-55
2022/06/08 03:24:49;;;;;;;5.22;3.80;;;;;;;19.13;66.41;100805.28;4985267;28;102391;-55
2022/06/08 03:27:16;;;;;;;4.22;3.25;;;;;;;19.15;66.32;100807.72;4983772;28;103955;-55
2022/06/08 03:29:44;;;;;;;4.85;3.50;;;;;;;19.14;67.05;100804.13;4984508;28;102372;-55
2022/06/08 03:32:10;;;;;;;4.07;3.57;;;;;;;19.15;67.31;100805.78;4981760;28;102831;-55
2022/06/08 03:34:38;;;;;;;3.72;3.40;;;;;;;19.14;66.76;100798.63;4993490;28;102380;-55
2022/06/08 03:37:05;;;;;;;3.72;3.10;;;;;;;19.15;67.16;100800.25;4991777;28;103926;-55
2022/06/08 03:39:32;;;;;;;4.65;3.45;;;;;;;19.16;67.38;100809.34;4992239;28;102559;-56
2022/06/08 03:41:59;;;;;;;6.38;3.78;;;;;;;19.16;67.12;100799.09;4987783;28;103013;-56
2022/06/08 03:44:25;;;;;;;3.90;3.50;;;;;;;19.16;67.26;100796.34;4988065;28;102230;-55
2022/06/08 03:46:59;;;;;;;4.78;3.50;;;;;;;19.17;67.30;100797.16;4987853;28;103862;-55
2022/06/08 03:49:27;;;;;;;4.38;3.38;;;;;;;19.17;67.24;100797.16;4991742;28;102483;-55
2022/06/08 03:51:58;;;;;;;4.72;3.88;;;;;;;19.17;67.63;100799.91;4993707;28;102575;-56
2022/06/08 03:54:29;;;;;;;5.78;3.33;;;;;;;19.17;67.34;100792.44;4983494;28;102640;-61
2022/06/08 03:57:03;;;;;;;5.40;3.40;;;;;;;19.18;67.59;100796.81;4989475;28;104162;-55
2022/06/08 03:59:31;;;;;;;4.97;3.15;;;;;;;19.19;67.52;100789.38;4993861;28;102385;-55
2022/06/08 04:01:59;;;;;;;4.82;3.50;;;;;;;19.19;67.63;100794.91;4988449;28;102262;-55
2022/06/08 04:04:26;;;;;;;4.68;3.70;;;;;;;19.19;67.35;100789.38;4991187;28;102437;-55
2022/06/08 04:06:53;;;;;;;3.65;3.33;;;;;;;19.20;67.54;100799.28;4989519;28;104310;-55
2022/06/08 04:09:21;;;;;;;4.03;3.40;;;;;;;19.20;67.37;100779.97;4985453;28;102424;-55
2022/06/08 04:11:48;;;;;;;3.65;3.30;;;;;;;19.21;67.65;100792.59;4992998;28;102292;-55
2022/06/08 04:14:15;;;;;;;4.53;3.85;;;;;;;19.20;67.34;100791.00;4996327;28;102290;-55
2022/06/08 04:16:42;;;;;;;5.55;3.80;;;;;;;19.21;67.67;100795.38;4987619;28;103982;-55
2022/06/08 04:19:10;;;;;;;3.90;3.42;;;;;;;19.21;67.57;100792.59;4989529;28;102048;-55
2022/06/08 04:21:36;;;;;;;4.03;3.50;;;;;;;19.22;67.73;100799.72;4982347;28;102386;-55
2022/06/08 04:24:03;;;;;;;5.20;3.67;;;;;;;19.22;67.67;100794.22;4994047;28;102675;-55
2022/06/08 04:26:31;;;;;;;4.47;3.33;;;;;;;19.23;67.54;100795.84;4984017;28;104050;-55
2022/06/08 04:28:57;;;;;;;5.22;3.50;;;;;;;19.25;67.55;100798.28;4984291;28;102154;-55
2022/06/08 04:31:24;;;;;;;4.10;3.38;;;;;;;19.26;67.71;100795.22;4982698;28;103069;-55
2022/06/08 04:33:53;;;;;;;3.97;3.55;;;;;;;19.26;67.55;100797.97;4981797;28;103841;-56
2022/06/08 04:36:21;;;;;;;4.20;3.45;;;;;;;19.28;67.76;100803.94;4991633;28;104443;-55
2022/06/08 04:38:48;;;;;;;4.85;3.63;;;;;;;19.29;67.73;100802.81;4993794;28;102376;-55
2022/06/08 04:41:16;;;;;;;3.65;3.35;;;;;;;19.31;67.46;100803.31;4984663;28;102083;-56
2022/06/08 04:43:43;;;;;;;3.85;3.45;;;;;;;19.30;67.70;100812.72;4990590;28;102397;-55
2022/06/08 04:46:16;;;;;;;3.50;3.20;;;;;;;19.30;67.71;100807.22;4976420;28;104557;-55
2022/06/08 04:48:42;;;;;;;4.65;3.83;;;;;;;19.30;67.80;100800.88;4988010;28;102156;-56
2022/06/08 04:51:10;;;;;;;4.45;3.50;;;;;;;19.31;67.85;100808.00;4982669;28;102247;-55
2022/06/08 04:53:39;;;;;;;3.75;3.40;;;;;;;19.33;67.78;100809.31;4986221;28;102237;-55
2022/06/08 04:56:06;;;;;;;3.95;3.53;;;;;;;19.32;67.75;100810.44;4975951;28;104059;-55
2022/06/08 04:58:33;;;;;;;4.68;3.55;;;;;;;19.34;67.88;100807.34;4987493;28;102657;-55
2022/06/08 05:01:00;;;;;;;4.28;3.88;;;;;;;19.34;68.00;100813.69;4987911;28;103462;-55
2022/06/08 05:03:29;;;;;;;6.38;4.15;;;;;;;19.36;67.96;100816.91;4986261;28;102453;-55
2022/06/08 05:05:56;;;;;;;;;;;;;;;19.37;68.05;100812.22;4988084;28;103769;-56
2022/06/08 05:08:24;;;;;;;3.95;3.50;;;;;;;19.37;68.08;100809.47;4994665;28;102134;-55
2022/06/08 05:10:52;;;;;;;7.10;3.75;;;;;;;19.37;67.82;100815.78;4981827;28;104664;-55
2022/06/08 05:13:20;;;;;;;3.72;3.35;;;;;;;19.39;68.20;100810.75;4979797;28;103859;-55
2022/06/08 05:15:48;;;;;;;5.45;3.60;;;;;;;19.39;67.74;100816.25;4977711;28;104326;-55
2022/06/08 05:18:18;;;;;;;5.20;4.20;;;;;;;19.41;67.96;100811.22;4989988;28;102175;-55
2022/06/08 05:20:48;;;;;;;4.97;4.10;;;;;;;19.41;67.96;100808.47;4986067;28;102671;-55
2022/06/08 05:23:18;;;;;;;5.63;3.55;;;;;;;19.42;68.02;100821.13;4985499;28;102386;-56
2022/06/08 05:25:45;;;;;;;4.53;3.85;;;;;;;19.41;68.10;100814.00;4983071;28;103933;-55
2022/06/08 05:28:13;;;;;;;4.05;3.65;;;;;;;19.41;67.90;100816.75;4988789;28;102365;-55
2022/06/08 05:30:41;;;;;;;;;;;;;;;19.41;68.11;100811.22;4975564;28;102249;-55
2022/06/08 05:33:08;;;;;;;5.38;3.92;;;;;;;19.42;67.87;100814.81;4987653;28;102596;-56
2022/06/08 05:35:35;;;;;;;4.38;3.95;;;;;;;19.43;67.83;100810.88;4990399;28;103931;-55
2022/06/08 05:38:02;;;;;;;5.03;3.85;;;;;;;19.43;68.15;100811.69;4988926;28;102339;-56
2022/06/08 05:40:32;;;;;;;5.13;3.95;;;;;;;19.44;68.00;100818.06;4992798;28;102195;-55
2022/06/08 05:43:01;;;;;;;7.75;4.20;;;;;;;19.44;67.78;100816.09;4984354;28;102579;-56
2022/06/08 05:45:30;;;;;;;6.07;4.10;;;;;;;19.45;67.63;100819.66;4991812;28;104186;-55
2022/06/08 05:47:58;;;;;;;5.40;3.83;;;;;;;19.47;68.13;100824.84;4987717;28;103624;-56
2022/06/08 05:50:25;;;;;;;7.38;4.60;;;;;;;19.48;67.93;100819.00;4976330;28;102451;-56
2022/06/08 05:52:53;;;;;;;4.60;3.92;;;;;;;19.50;67.82;100821.44;4980635;28;102634;-56
2022/06/08 05:55:22;;;;;;;5.65;4.00;;;;;;;19.50;67.82;100815.91;4986004;28;105920;-56
2022/06/08 05:57:51;;;;;;;4.43;4.03;;;;;;;19.51;67.58;100823.88;4982760;28;102426;-55
2022/06/08 06:00:21;;;;;;;5.03;3.90;;;;;;;19.53;67.54;100818.03;4990853;28;102139;-55
2022/06/08 06:02:49;;;;;;;7.28;4.13;;;;;;;19.54;67.83;100822.41;4987795;28;104327;-55
2022/06/08 06:05:18;;;;;;;;;;;;;;;19.55;67.78;100824.84;4987762;28;103960;-55
2022/06/08 06:07:47;;;;;;;6.03;3.70;;;;;;;19.59;67.92;100825.00;4979734;28;102139;-55
2022/06/08 06:10:15;;;;;;;7.03;3.85;;;;;;;19.61;67.65;100819.94;4994771;28;102481;-55
2022/06/08 06:12:43;;;;;;;;;;;;;;;19.61;67.53;100811.66;4987745;28;102724;-55
2022/06/08 06:15:12;;;;;;;5.80;3.50;;;;;;;19.64;67.31;100816.56;4983429;28;104006;-55
2022/06/08 06:17:38;;;;;;;5.60;3.92;;;;;;;19.68;67.29;100823.03;4991525;28;103007;-55
2022/06/08 06:20:08;;;;;;;4.85;4.00;;;;;;;19.69;67.40;100830.19;4988407;28;102342;-56
2022/06/08 06:22:37;;;;;;;5.78;3.75;;;;;;;19.74;67.81;100824.47;4995529;28;102302;-55
2022/06/08 06:25:06;;;;;;;3.97;3.38;;;;;;;19.77;66.76;100821.06;4988748;28;105957;-55
2022/06/08 06:27:32;;;;;;;3.33;3.03;;;;;;;19.77;67.15;100829.34;4988813;28;102862;-55
2022/06/08 06:30:00;;;;;;;4.03;3.45;;;;;;;19.77;67.25;100821.06;4988017;28;102036;-56
2022/06/08 06:32:28;;;;;;;4.63;3.47;;;;;;;19.77;67.17;100814.72;4991750;28;102239;-55
2022/06/08 06:34:57;;;;;;;4.10;3.33;;;;;;;19.77;67.17;100820.25;4991744;28;103930;-55
2022/06/08 06:37:26;;;;;;;4.90;3.63;;;;;;;19.78;66.89;100817.16;4997205;28;102038;-55
2022/06/08 06:39:53;;;;;;;3.05;2.67;;;;;;;19.79;66.97;100817.94;4995275;28;102462;-55
2022/06/08 06:42:21;;;;;;;4.60;3.13;;;;;;;19.82;66.49;100823.63;4997732;28;102221;-55
2022/06/08 06:44:47;;;;;;;3.87;3.47;;;;;;;19.80;66.88;100822.31;4996266;28;103891;-56
2022/06/08 06:47:14;;;;;;;4.93;2.85;;;;;;;19.80;67.00;100820.41;4996453;28;102124;-56
2022/06/08 06:49:41;;;;;;;3.13;2.83;;;;;;;19.83;67.08;100824.44;4982699;28;102389;-55
2022/06/08 06:52:09;;;;;;;5.20;2.72;;;;;;;19.83;66.86;100821.66;4997874;28;102058;-55
2022/06/08 06:54:37;;;;;;;3.30;3.00;;;;;;;19.85;67.36;100816.63;4996924;28;103878;-55
2022/06/08 06:57:05;;;;;;;4.63;3.20;;;;;;;19.84;66.69;100815.84;4996098;28;102203;-55
2022/06/08 06:59:32;;;;;;;5.18;3.88;;;;;;;19.86;66.37;100818.25;4994786;28;102492;-55
2022/06/08 07:01:58;;;;;;;5.93;2.97;;;;;;;20.00;64.58;100818.03;4993881;28;104010;-53
2022/06/08 07:04:25;;;;;;;4.05;2.90;;;;;;;20.02;64.28;100818.53;4993539;28;103827;-53
2022/06/08 07:06:53;;;;;;;5.88;3.08;;;;;;;19.99;65.18;100816.41;4996361;28;102192;-53
2022/06/08 07:09:21;;;;;;;6.03;3.55;;;;;;;19.98;65.37;100817.53;4996617;28;102372;-53
2022/06/08 07:11:50;;;;;;;3.72;3.00;;;;;;;19.96;65.83;100817.88;4995809;28;102381;-53
2022/06/08 07:14:19;;;;;;;3.80;2.65;;;;;;;19.99;65.59;100816.41;4976770;28;103918;-53
2022/06/08 07:16:46;;;;;;;5.20;3.17;;;;;;;20.01;65.05;100820.44;4976875;28;102362;-53
2022/06/08 07:19:14;;;;;;;;;;;;;;;19.97;65.74;100813.16;4996349;28;102403;-53
2022/06/08 07:21:41;;;;;;;3.28;2.70;;;;;;;19.95;66.22;100815.47;4996674;28;102473;-54
2022/06/08 07:24:10;;;;;;;3.10;2.80;;;;;;;19.99;65.21;100820.00;4995832;28;103986;-53
2022/06/08 07:26:36;;;;;;;2.97;2.67;;;;;;;20.03;65.53;100811.84;4995804;28;102374;-53
2022/06/08 07:29:08;;;;;;;3.30;2.38;;;;;;;20.04;65.83;100813.47;4989250;28;102443;-54
2022/06/08 07:31:36;;;;;;;3.38;2.60;;;;;;;20.04;65.20;100805.16;4992129;28;102231;-54
2022/06/08 07:34:02;;;;;;;4.63;2.70;;;;;;;20.05;64.96;100809.53;4983641;28;103801;-54
2022/06/08 07:36:29;;;;;;;3.05;2.55;;;;;;;20.08;64.73;100803.34;4981357;28;103099;-54
2022/06/08 07:38:56;;;;;;;3.00;2.40;;;;;;;20.06;64.81;100811.19;4978218;28;102691;-55
2022/06/08 07:41:23;;;;;;;4.28;2.72;;;;;;;20.09;64.82;100816.03;4996160;28;102468;-54
2022/06/08 07:43:50;;;;;;;4.07;2.70;;;;;;;20.09;64.89;100816.03;4994178;28;104017;-55
2022/06/08 07:46:19;;;;;;;5.80;2.40;;;;;;;20.03;64.84;100818.19;4982664;28;102265;-54
2022/06/08 07:51:32;;;;;;;3.05;2.40;;;;;;;20.00;65.95;100815.25;4984355;28;102286;-53
2022/06/08 07:53:59;;;;;;;2.63;2.42;;;;;;;19.96;65.89;100817.88;4992643;28;103897;-54
2022/06/08 07:56:26;;;;;;;4.35;2.20;;;;;;;19.97;66.28;100818.69;4985249;28;102325;-54
2022/06/08 07:58:52;;;;;;;2.28;2.08;;;;;;;19.97;65.15;100813.16;4993395;28;102592;-54
2022/06/08 08:01:20;;;;;;;3.17;2.40;;;;;;;20.01;64.23;100819.63;4995976;28;102222;-54
2022/06/08 08:03:47;;;;;;;2.35;2.15;;;;;;;19.99;65.59;100813.66;4994753;28;102919;-54
2022/06/08 08:06:13;;;;;;;2.45;2.08;;;;;;;19.98;65.51;100814.78;4994601;28;102198;-54
2022/06/08 08:08:40;;;;;;;3.00;2.33;;;;;;;19.96;65.53;100814.31;4995069;28;102290;-54
2022/06/08 08:11:07;;;;;;;2.72;2.33;;;;;;;20.04;64.35;100827.25;4995278;28;102637;-54
2022/06/08 08:13:34;;;;;;;2.58;2.20;;;;;;;20.00;65.68;100815.25;4994381;28;103852;-55
2022/06/08 08:16:02;;;;;;;3.23;2.40;;;;;;;19.96;65.31;100822.59;4986420;28;102369;-55
2022/06/08 08:18:31;;;;;;;2.55;2.35;;;;;;;20.01;62.89;100825.16;4987676;28;102173;-54
2022/06/08 08:20:58;;;;;;;2.55;2.35;;;;;;;19.97;65.58;100826.97;4991285;28;102199;-56
2022/06/08 08:23:24;;;;;;;2.97;2.33;;;;;;;19.96;64.98;100820.66;4994186;28;104202;-54
2022/06/08 08:25:52;;;;;;;2.30;2.10;;;;;;;19.96;64.65;100828.13;4993657;28;102503;-54
2022/06/08 08:28:20;;;;;;;2.88;2.00;;;;;;;19.97;65.41;100824.22;4985794;28;102420;-55
2022/06/08 08:30:47;;;;;;;2.30;2.10;;;;;;;19.96;64.98;100822.59;4985445;28;102552;-55
2022/06/08 08:33:14;;;;;;;2.97;2.55;;;;;;;19.93;65.38;100813.03;4985508;28;104328;-54
2022/06/08 08:35:42;;;;;;;4.15;1.95;;;;;;;19.91;65.24;100821.66;4989294;28;102350;-55
2022/06/08 08:38:09;;;;;;;3.80;2.00;;;;;;;19.91;65.67;100815.31;4994426;28;102324;-55
2022/06/08 08:40:45;;;;;;;2.60;2.40;;;;;;;19.89;65.56;100823.91;4991245;28;102384;-54
2022/06/08 08:43:15;;;;;;;2.20;1.98;;;;;;;19.90;65.16;100828.28;4982871;28;104240;-54
2022/06/08 08:46:09;;;;;;;2.30;1.83;;;;;;;19.91;64.36;100815.31;4982722;28;102488;-54
2022/06/08 08:48:46;;;;;;;2.35;1.98;;;;;;;19.95;65.47;100818.22;4985840;28;102422;-54
2022/06/08 08:51:23;;;;;;;2.25;1.90;;;;;;;19.95;65.15;100815.47;4991675;28;102401;-53
2022/06/08 08:54:02;;;;;;;4.40;2.03;;;;;;;19.93;65.14;100807.50;4993943;28;103956;-54
2022/06/08 08:56:35;;;;;;;4.28;1.90;;;;;;;19.97;65.33;100816.72;4985205;28;102471;-54
2022/06/08 08:59:08;;;;;;;2.20;2.05;;;;;;;19.92;65.31;100809.44;4992828;28;102435;-54
2022/06/08 09:01:37;;;;;;;2.03;1.90;;;;;;;19.93;65.49;100816.59;4987425;28;102227;-53
2022/06/08 09:04:13;;;;;;;2.25;2.05;;;;;;;19.97;65.44;100815.94;4992639;28;103930;-53
2022/06/08 09:06:41;;;;;;;2.08;1.90;;;;;;;19.98;65.60;100809.25;4989172;28;102267;-54
2022/06/08 09:09:14;;;;;;;2.80;2.10;;;;;;;19.97;65.20;100818.69;4994133;28;102390;-54
2022/06/08 09:11:42;;;;;;;2.20;2.00;;;;;;;19.97;65.65;100813.16;4994241;28;102596;-54
2022/06/08 09:14:14;;;;;;;2.30;2.10;;;;;;;19.98;64.77;100815.63;4985946;28;104138;-53
2022/06/08 09:16:43;;;;;;;2.50;2.30;;;;;;;20.01;64.81;100812.16;4977007;28;102560;-54
2022/06/08 09:19:29;;;;;;;2.28;1.83;;;;;;;19.98;64.31;100809.25;4992061;28;102412;-54
2022/06/08 09:22:18;;;;;;;2.03;1.73;;;;;;;19.99;64.76;100810.91;4981966;28;102282;-53
2022/06/08 09:24:46;;;;;;;;;;;;;;;19.92;65.22;100801.16;4993774;28;103981;-54
2022/06/08 09:27:22;;;;;;;1.95;1.80;;;;;;;19.93;65.43;100800.00;4984280;28;102397;-54
2022/06/08 09:29:53;;;;;;;3.30;1.88;;;;;;;19.91;65.13;100791.28;4973124;28;102128;-55
2022/06/08 09:32:33;;;;;;;1.85;1.67;;;;;;;19.92;65.19;100786.56;4992729;28;102070;-54
2022/06/08 09:35:03;;;;;;;1.83;1.73;;;;;;;19.96;65.72;100790.25;4992306;28;107825;-53
2022/06/08 09:37:31;;;;;;;2.17;1.90;;;;;;;19.97;65.49;100796.59;4988843;28;102568;-54
2022/06/08 09:40:01;;;;;;;2.78;2.00;;;;;;;19.99;65.78;100794.31;4973036;28;102311;-53
2022/06/08 09:42:48;;;;;;;2.60;2.00;;;;;;;19.96;65.85;100781.97;4976219;28;102602;-54
2022/06/08 09:45:29;;;;;;;2.30;1.77;;;;;;;19.96;65.32;100792.22;4986079;28;103892;-53
2022/06/08 09:51:26;;;;;;;1.95;1.67;;;;;;;19.96;64.44;100783.94;4996611;28;102092;-53
2022/06/08 09:54:05;;;;;;;2.88;2.25;;;;;;;19.95;65.37;100779.56;4994054;28;103161;-54
2022/06/08 09:56:59;;;;;;;3.22;1.98;;;;;;;19.91;64.70;100774.69;4994329;28;103827;-54
2022/06/08 09:59:43;;;;;;;2.00;1.90;;;;;;;19.91;65.22;100769.16;4988194;28;102250;-54
2022/06/08 10:02:20;;;;;;;2.40;2.20;;;;;;;19.91;65.04;100782.97;4976952;28;102209;-54
2022/06/08 10:04:59;;;;;;;2.65;1.80;;;;;;;20.00;64.81;100773.84;4988986;28;102441;-54
2022/06/08 10:07:34;;;;;;;2.28;2.08;;;;;;;19.95;64.75;100763.00;4994463;28;104708;-54
2022/06/08 10:10:24;;;;;;;2.20;1.90;;;;;;;19.91;64.90;100766.41;4988657;28;102551;-54
2022/06/08 10:12:57;;;;;;;2.30;2.10;;;;;;;19.90;64.68;100761.19;4990565;28;102734;-54
2022/06/08 10:15:30;;;;;;;2.22;2.03;;;;;;;19.91;64.56;100760.88;4996052;28;102022;-53
2022/06/08 10:18:11;;;;;;;3.45;2.10;;;;;;;19.92;65.00;100761.69;4983528;28;103851;-53
2022/06/08 10:20:40;;;;;;;3.33;1.90;;;;;;;19.90;64.65;100745.44;4976913;28;102118;-54
2022/06/08 10:23:20;;;;;;;;;;;;;;;19.89;64.91;100752.13;4988040;28;102233;-54
2022/06/08 10:25:53;;;;;;;2.92;2.47;;;;;;;19.91;65.48;100755.38;4996066;28;102394;-54
2022/06/08 10:28:27;;;;;;;2.30;2.08;;;;;;;19.90;64.98;100748.19;4993924;28;103968;-54
2022/06/08 10:30:59;;;;;;;2.45;2.28;;;;;;;19.89;64.87;100746.59;4986337;28;102338;-53
2022/06/08 10:33:34;;;;;;;5.68;1.98;;;;;;;19.89;65.18;100752.13;4981025;28;102890;-54
2022/06/08 10:36:02;;;;;;;3.47;2.30;;;;;;;19.91;65.38;100744.31;4977657;28;102228;-54
2022/06/08 10:38:32;;;;;;;2.10;1.92;;;;;;;19.90;64.65;100748.19;4984274;28;103963;-54
2022/06/08 10:44:03;;;;;;;3.35;2.03;;;;;;;19.88;64.81;100742.22;4995089;28;102543;-53
2022/06/08 10:46:40;;;;;;;3.15;2.15;;;;;;;19.92;64.96;100742.34;4997170;28;101993;-54
2022/06/08 10:49:18;;;;;;;2.90;2.28;;;;;;;19.89;64.59;100738.31;4993004;28;104134;-53
2022/06/08 10:51:44;;;;;;;4.25;2.40;;;;;;;19.91;63.54;100733.28;4996128;28;102595;-54
2022/06/08 10:58:01;;;;;;;2.58;2.38;;;;;;;19.84;64.61;100721.94;4993395;28;102552;-54
2022/06/08 11:00:52;;;;;;;2.95;2.65;;;;;;;19.87;64.97;100731.47;4991030;28;104072;-53
2022/06/08 11:03:59;;;;;;;2.72;2.45;;;;;;;19.86;64.99;100724.34;4980638;28;102296;-54
2022/06/08 11:06:55;;;;;;;3.22;2.30;;;;;;;19.89;64.76;100718.97;4993380;28;102055;-54
2022/06/08 11:10:04;;;;;;;7.78;2.50;;;;;;;19.89;64.48;100727.25;4995917;28;102304;-54
2022/06/08 11:12:58;;;;;;;3.22;2.70;;;;;;;19.86;64.55;100719.63;4987280;28;104003;-54
2022/06/08 11:15:53;;;;;;;3.67;2.40;;;;;;;19.85;64.93;100717.22;4995281;28;102063;-54
2022/06/08 11:18:35;;;;;;;3.65;2.70;;;;;;;19.86;65.21;100713.31;4983890;28;104674;-53
2022/06/08 11:21:17;;;;;;;3.85;2.47;;;;;;;19.86;64.88;100714.09;4989673;28;102484;-54
2022/06/08 11:23:48;;;;;;;3.50;2.60;;;;;;;19.84;64.83;100713.66;4995039;28;108335;-54
2022/06/08 11:26:28;;;;;;;2.78;2.58;;;;;;;19.82;64.58;100707.63;4975187;28;102430;-54
2022/06/08 11:28:59;;;;;;;4.20;2.70;;;;;;;19.83;64.76;100703.72;4989167;28;102476;-53
2022/06/08 11:31:51;;;;;;;2.67;2.47;;;;;;;19.78;64.76;100690.13;4987664;28;102190;-54
2022/06/08 11:34:48;;;;;;;2.70;2.50;;;;;;;19.82;65.05;100702.13;4987906;28;103868;-53
2022/06/08 11:37:30;;;;;;;3.92;2.53;;;;;;;19.83;65.24;100692.69;4987498;28;102313;-54
2022/06/08 11:40:03;;;;;;;3.20;2.90;;;;;;;19.84;65.29;100685.22;4995427;28;102100;-54
2022/06/08 11:42:32;;;;;;;3.25;2.95;;;;;;;19.82;65.21;100691.06;4992749;28;102775;-53
2022/06/08 11:45:06;;;;;;;3.22;2.92;;;;;;;19.84;65.43;100683.28;4993153;28;103893;-56
2022/06/08 11:47:43;;;;;;;4.05;2.80;;;;;;;19.85;65.59;100684.88;4984350;28;102320;-56
2022/06/08 11:50:13;;;;;;;3.28;2.90;;;;;;;19.85;65.25;100684.88;4984539;28;102520;-56
2022/06/08 11:52:43;;;;;;;2.80;2.35;;;;;;;19.87;65.08;100681.78;4995916;28;102437;-55
2022/06/08 11:55:17;;;;;;;3.00;2.70;;;;;;;19.85;65.54;100689.59;4993144;28;107846;-56